sensor_id;sensor_type;location;lat;lon;timestamp;P1;durP1;ratioP1;P2;durP2;ratioP2
10269;SDS011;70826;50.930;5.334;2023-07-02T00:00:08;10.68;;;5.05;;
10269;SDS011;70826;50.930;5.334;2023-07-02T00:02:39;6.35;;;4.78;;
10269;SDS011;70826;50.930;5.334;2023-07-02T00:05:06;6.57;;;4.80;;
10269;SDS011;70826;50.930;5.334;2023-07-02T00:07:32;6.93;;;5.15;;
10269;SDS011;70826;50.930;5.334;2023-07-02T00:10:01;6.78;;;5.18;;
10269;SDS011;70826;50.930;5.334;2023-07-02T00:12:28;6.82;;;5.13;;
10269;SDS011;70826;50.930;5.334;2023-07-02T00:14:54;8.27;;;5.50;;
10269;SDS011;70826;50.930;5.334;2023-07-02T00:17:20;7.60;;;5.30;;
10269;SDS011;70826;50.930;5.334;2023-07-02T00:19:46;8.23;;;5.90;;
10269;SDS011;70826;50.930;5.334;2023-07-02T00:22:19;7.85;;;5.70;;
10269;SDS011;70826;50.930;5.334;2023-07-02T00:24:47;8.98;;;5.97;;
10269;SDS011;70826;50.930;5.334;2023-07-02T00:27:13;9.63;;;6.35;;
10269;SDS011;70826;50.930;5.334;2023-07-02T00:29:39;7.75;;;6.10;;
10269;SDS011;70826;50.930;5.334;2023-07-02T00:32:06;8.18;;;6.05;;
10269;SDS011;70826;50.930;5.334;2023-07-02T00:34:34;8.43;;;6.32;;
10269;SDS011;70826;50.930;5.334;2023-07-02T00:37:00;8.80;;;6.55;;
10269;SDS011;70826;50.930;5.334;2023-07-02T00:39:26;9.00;;;6.47;;
10269;SDS011;70826;50.930;5.334;2023-07-02T00:41:52;9.60;;;6.65;;
10269;SDS011;70826;50.930;5.334;2023-07-02T00:44:18;8.60;;;6.63;;
10269;SDS011;70826;50.930;5.334;2023-07-02T00:46:44;9.75;;;7.40;;
10269;SDS011;70826;50.930;5.334;2023-07-02T00:49:12;9.63;;;7.18;;
10269;SDS011;70826;50.930;5.334;2023-07-02T00:51:43;10.57;;;7.90;;
10269;SDS011;70826;50.930;5.334;2023-07-02T00:54:11;11.32;;;7.53;;
10269;SDS011;70826;50.930;5.334;2023-07-02T00:56:37;11.10;;;7.70;;
10269;SDS011;70826;50.930;5.334;2023-07-02T00:59:05;11.52;;;8.07;;
10269;SDS011;70826;50.930;5.334;2023-07-02T01:01:33;12.20;;;8.10;;
10269;SDS011;70826;50.930;5.334;2023-07-02T01:04:05;11.55;;;8.20;;
10269;SDS011;70826;50.930;5.334;2023-07-02T01:06:39;11.65;;;8.30;;
10269;SDS011;70826;50.930;5.334;2023-07-02T01:09:10;11.77;;;8.55;;
10269;SDS011;70826;50.930;5.334;2023-07-02T01:14:22;11.75;;;8.98;;
10269;SDS011;70826;50.930;5.334;2023-07-02T01:16:51;12.07;;;9.18;;
10269;SDS011;70826;50.930;5.334;2023-07-02T01:20:04;11.90;;;8.60;;
10269;SDS011;70826;50.930;5.334;2023-07-02T01:22:11;13.05;;;9.00;;
10269;SDS011;70826;50.930;5.334;2023-07-02T01:24:40;13.10;;;9.27;;
10269;SDS011;70826;50.930;5.334;2023-07-02T01:27:10;12.38;;;9.02;;
10269;SDS011;70826;50.930;5.334;2023-07-02T01:29:38;12.98;;;9.73;;
10269;SDS011;70826;50.930;5.334;2023-07-02T01:32:06;11.80;;;9.45;;
10269;SDS011;70826;50.930;5.334;2023-07-02T01:34:37;12.95;;;9.50;;
10269;SDS011;70826;50.930;5.334;2023-07-02T01:37:03;12.55;;;9.55;;
10269;SDS011;70826;50.930;5.334;2023-07-02T01:39:34;13.93;;;10.25;;
10269;SDS011;70826;50.930;5.334;2023-07-02T01:42:10;13.30;;;9.85;;
10269;SDS011;70826;50.930;5.334;2023-07-02T01:44:41;11.30;;;8.75;;
10269;SDS011;70826;50.930;5.334;2023-07-02T01:47:09;15.75;;;10.27;;
10269;SDS011;70826;50.930;5.334;2023-07-02T01:49:35;15.05;;;10.55;;
10269;SDS011;70826;50.930;5.334;2023-07-02T01:52:04;16.17;;;10.70;;
10269;SDS011;70826;50.930;5.334;2023-07-02T01:54:32;14.10;;;10.30;;
10269;SDS011;70826;50.930;5.334;2023-07-02T01:57:03;13.75;;;10.07;;
10269;SDS011;70826;50.930;5.334;2023-07-02T01:59:29;14.90;;;10.85;;
10269;SDS011;70826;50.930;5.334;2023-07-02T02:01:56;14.90;;;10.80;;
10269;SDS011;70826;50.930;5.334;2023-07-02T02:04:22;13.48;;;10.40;;
10269;SDS011;70826;50.930;5.334;2023-07-02T02:06:48;18.13;;;10.93;;
10269;SDS011;70826;50.930;5.334;2023-07-02T02:09:16;14.32;;;10.38;;
10269;SDS011;70826;50.930;5.334;2023-07-02T02:11:47;14.32;;;10.95;;
10269;SDS011;70826;50.930;5.334;2023-07-02T02:14:19;16.83;;;11.15;;
10269;SDS011;70826;50.930;5.334;2023-07-02T02:16:46;14.73;;;10.45;;
10269;SDS011;70826;50.930;5.334;2023-07-02T02:19:12;15.82;;;10.75;;
10269;SDS011;70826;50.930;5.334;2023-07-02T02:21:44;16.35;;;11.55;;
10269;SDS011;70826;50.930;5.334;2023-07-02T02:24:09;14.98;;;11.20;;
10269;SDS011;70826;50.930;5.334;2023-07-02T02:26:35;14.48;;;11.18;;
10269;SDS011;70826;50.930;5.334;2023-07-02T02:29:01;14.88;;;10.98;;
10269;SDS011;70826;50.930;5.334;2023-07-02T02:31:27;15.27;;;11.32;;
10269;SDS011;70826;50.930;5.334;2023-07-02T02:33:56;16.95;;;11.98;;
10269;SDS011;70826;50.930;5.334;2023-07-02T02:36:23;13.05;;;10.20;;
10269;SDS011;70826;50.930;5.334;2023-07-02T02:38:51;15.70;;;11.25;;
10269;SDS011;70826;50.930;5.334;2023-07-02T02:41:20;16.17;;;12.00;;
10269;SDS011;70826;50.930;5.334;2023-07-02T02:43:48;17.40;;;12.18;;
10269;SDS011;70826;50.930;5.334;2023-07-02T02:46:19;16.20;;;11.70;;
10269;SDS011;70826;50.930;5.334;2023-07-02T02:48:46;17.90;;;12.00;;
10269;SDS011;70826;50.930;5.334;2023-07-02T02:51:14;16.20;;;11.77;;
10269;SDS011;70826;50.930;5.334;2023-07-02T02:53:40;17.33;;;12.13;;
10269;SDS011;70826;50.930;5.334;2023-07-02T02:56:08;16.52;;;12.25;;
10269;SDS011;70826;50.930;5.334;2023-07-02T02:58:34;17.98;;;12.48;;
10269;SDS011;70826;50.930;5.334;2023-07-02T03:01:02;19.90;;;13.25;;
10269;SDS011;70826;50.930;5.334;2023-07-02T03:03:33;15.95;;;12.48;;
10269;SDS011;70826;50.930;5.334;2023-07-02T03:06:04;16.48;;;12.38;;
10269;SDS011;70826;50.930;5.334;2023-07-02T03:08:30;17.80;;;12.63;;
10269;SDS011;70826;50.930;5.334;2023-07-02T03:10:58;17.73;;;12.60;;
10269;SDS011;70826;50.930;5.334;2023-07-02T03:13:24;17.60;;;12.43;;
10269;SDS011;70826;50.930;5.334;2023-07-02T03:15:53;17.05;;;12.25;;
10269;SDS011;70826;50.930;5.334;2023-07-02T03:18:21;15.50;;;11.55;;
10269;SDS011;70826;50.930;5.334;2023-07-02T03:20:51;16.92;;;12.85;;
10269;SDS011;70826;50.930;5.334;2023-07-02T03:23:17;17.15;;;12.95;;
10269;SDS011;70826;50.930;5.334;2023-07-02T03:25:48;17.92;;;13.00;;
10269;SDS011;70826;50.930;5.334;2023-07-02T03:28:15;17.58;;;13.45;;
10269;SDS011;70826;50.930;5.334;2023-07-02T03:30:43;19.38;;;13.82;;
10269;SDS011;70826;50.930;5.334;2023-07-02T03:33:09;17.40;;;13.25;;
10269;SDS011;70826;50.930;5.334;2023-07-02T03:35:37;17.27;;;12.95;;
10269;SDS011;70826;50.930;5.334;2023-07-02T03:38:05;19.35;;;14.15;;
10269;SDS011;70826;50.930;5.334;2023-07-02T03:40:35;16.45;;;12.23;;
10269;SDS011;70826;50.930;5.334;2023-07-02T03:43:03;19.83;;;13.98;;
10269;SDS011;70826;50.930;5.334;2023-07-02T03:45:31;20.35;;;15.00;;
10269;SDS011;70826;50.930;5.334;2023-07-02T03:48:02;18.35;;;13.55;;
10269;SDS011;70826;50.930;5.334;2023-07-02T03:50:32;19.33;;;13.82;;
10269;SDS011;70826;50.930;5.334;2023-07-02T03:53:00;20.25;;;13.90;;
10269;SDS011;70826;50.930;5.334;2023-07-02T03:55:27;19.90;;;13.48;;
10269;SDS011;70826;50.930;5.334;2023-07-02T03:57:55;20.00;;;13.93;;
10269;SDS011;70826;50.930;5.334;2023-07-02T04:00:24;18.67;;;14.23;;
10269;SDS011;70826;50.930;5.334;2023-07-02T04:02:50;20.95;;;14.50;;
10269;SDS011;70826;50.930;5.334;2023-07-02T04:05:17;20.83;;;14.98;;
10269;SDS011;70826;50.930;5.334;2023-07-02T04:07:43;19.63;;;14.50;;
10269;SDS011;70826;50.930;5.334;2023-07-02T04:10:14;20.45;;;14.48;;
10269;SDS011;70826;50.930;5.334;2023-07-02T04:12:40;21.08;;;14.73;;
10269;SDS011;70826;50.930;5.334;2023-07-02T04:15:06;18.95;;;14.20;;
10269;SDS011;70826;50.930;5.334;2023-07-02T04:17:33;21.02;;;15.20;;
10269;SDS011;70826;50.930;5.334;2023-07-02T04:20:02;19.55;;;14.65;;
10269;SDS011;70826;50.930;5.334;2023-07-02T04:22:33;20.00;;;15.45;;
10269;SDS011;70826;50.930;5.334;2023-07-02T04:25:01;20.13;;;14.85;;
10269;SDS011;70826;50.930;5.334;2023-07-02T04:27:27;22.15;;;14.65;;
10269;SDS011;70826;50.930;5.334;2023-07-02T04:29:57;21.25;;;14.90;;
10269;SDS011;70826;50.930;5.334;2023-07-02T04:32:25;22.50;;;15.20;;
10269;SDS011;70826;50.930;5.334;2023-07-02T04:34:51;21.95;;;15.20;;
10269;SDS011;70826;50.930;5.334;2023-07-02T04:37:16;23.48;;;15.63;;
10269;SDS011;70826;50.930;5.334;2023-07-02T04:39:50;22.30;;;15.38;;
10269;SDS011;70826;50.930;5.334;2023-07-02T04:42:18;23.15;;;15.77;;
10269;SDS011;70826;50.930;5.334;2023-07-02T04:44:46;22.00;;;15.68;;
10269;SDS011;70826;50.930;5.334;2023-07-02T04:47:17;24.05;;;15.80;;
10269;SDS011;70826;50.930;5.334;2023-07-02T04:49:45;22.17;;;14.70;;
10269;SDS011;70826;50.930;5.334;2023-07-02T04:52:11;21.88;;;15.75;;
10269;SDS011;70826;50.930;5.334;2023-07-02T04:54:37;22.25;;;16.13;;
10269;SDS011;70826;50.930;5.334;2023-07-02T04:57:03;20.95;;;15.48;;
10269;SDS011;70826;50.930;5.334;2023-07-02T04:59:29;23.10;;;15.95;;
10269;SDS011;70826;50.930;5.334;2023-07-02T05:01:55;21.65;;;15.68;;
10269;SDS011;70826;50.930;5.334;2023-07-02T05:04:20;21.67;;;14.80;;
10269;SDS011;70826;50.930;5.334;2023-07-02T05:06:46;24.35;;;16.33;;
10269;SDS011;70826;50.930;5.334;2023-07-02T05:09:14;22.45;;;16.05;;
10269;SDS011;70826;50.930;5.334;2023-07-02T05:11:43;21.55;;;15.65;;
10269;SDS011;70826;50.930;5.334;2023-07-02T05:14:11;24.60;;;16.88;;
10269;SDS011;70826;50.930;5.334;2023-07-02T05:16:37;26.10;;;17.17;;
10269;SDS011;70826;50.930;5.334;2023-07-02T05:19:02;22.83;;;16.00;;
10269;SDS011;70826;50.930;5.334;2023-07-02T05:21:28;22.02;;;15.70;;
10269;SDS011;70826;50.930;5.334;2023-07-02T05:23:54;23.35;;;16.00;;
10269;SDS011;70826;50.930;5.334;2023-07-02T05:26:25;23.55;;;16.77;;
10269;SDS011;70826;50.930;5.334;2023-07-02T05:28:58;26.08;;;17.40;;
10269;SDS011;70826;50.930;5.334;2023-07-02T05:31:26;22.95;;;17.42;;
10269;SDS011;70826;50.930;5.334;2023-07-02T05:33:55;23.88;;;16.20;;
10269;SDS011;70826;50.930;5.334;2023-07-02T05:36:21;22.50;;;16.15;;
10269;SDS011;70826;50.930;5.334;2023-07-02T05:38:46;24.92;;;17.95;;
10269;SDS011;70826;50.930;5.334;2023-07-02T05:41:21;24.75;;;16.52;;
10269;SDS011;70826;50.930;5.334;2023-07-02T05:43:47;27.38;;;17.33;;
10269;SDS011;70826;50.930;5.334;2023-07-02T05:46:21;22.65;;;16.52;;
10269;SDS011;70826;50.930;5.334;2023-07-02T05:48:52;24.75;;;16.85;;
10269;SDS011;70826;50.930;5.334;2023-07-02T05:51:24;25.58;;;17.77;;
10269;SDS011;70826;50.930;5.334;2023-07-02T05:53:50;24.80;;;16.98;;
10269;SDS011;70826;50.930;5.334;2023-07-02T05:56:18;24.35;;;17.33;;
10269;SDS011;70826;50.930;5.334;2023-07-02T05:58:45;25.23;;;17.25;;
10269;SDS011;70826;50.930;5.334;2023-07-02T06:01:14;23.40;;;16.95;;
10269;SDS011;70826;50.930;5.334;2023-07-02T06:03:43;24.27;;;17.10;;
10269;SDS011;70826;50.930;5.334;2023-07-02T06:06:16;25.83;;;18.23;;
10269;SDS011;70826;50.930;5.334;2023-07-02T06:08:43;24.30;;;17.33;;
10269;SDS011;70826;50.930;5.334;2023-07-02T06:11:10;23.15;;;16.83;;
10269;SDS011;70826;50.930;5.334;2023-07-02T06:13:37;24.90;;;16.98;;
10269;SDS011;70826;50.930;5.334;2023-07-02T06:16:05;23.58;;;17.20;;
10269;SDS011;70826;50.930;5.334;2023-07-02T06:18:36;23.85;;;17.38;;
10269;SDS011;70826;50.930;5.334;2023-07-02T06:21:02;23.88;;;17.23;;
10269;SDS011;70826;50.930;5.334;2023-07-02T06:23:38;25.15;;;17.60;;
10269;SDS011;70826;50.930;5.334;2023-07-02T06:26:10;25.25;;;17.27;;
10269;SDS011;70826;50.930;5.334;2023-07-02T06:28:39;27.23;;;18.05;;
10269;SDS011;70826;50.930;5.334;2023-07-02T06:31:04;28.15;;;18.17;;
10269;SDS011;70826;50.930;5.334;2023-07-02T06:33:32;25.05;;;17.52;;
10269;SDS011;70826;50.930;5.334;2023-07-02T06:35:57;27.85;;;18.40;;
10269;SDS011;70826;50.930;5.334;2023-07-02T06:38:28;25.00;;;18.08;;
10269;SDS011;70826;50.930;5.334;2023-07-02T06:40:57;28.52;;;18.23;;
10269;SDS011;70826;50.930;5.334;2023-07-02T06:43:25;26.13;;;18.38;;
10269;SDS011;70826;50.930;5.334;2023-07-02T06:45:51;25.58;;;18.38;;
10269;SDS011;70826;50.930;5.334;2023-07-02T06:48:18;26.17;;;18.77;;
10269;SDS011;70826;50.930;5.334;2023-07-02T06:50:46;26.08;;;18.52;;
10269;SDS011;70826;50.930;5.334;2023-07-02T06:53:14;29.80;;;19.08;;
10269;SDS011;70826;50.930;5.334;2023-07-02T06:55:43;26.38;;;18.42;;
10269;SDS011;70826;50.930;5.334;2023-07-02T06:58:14;28.70;;;18.63;;
10269;SDS011;70826;50.930;5.334;2023-07-02T07:00:40;25.85;;;17.73;;
10269;SDS011;70826;50.930;5.334;2023-07-02T07:03:06;27.13;;;18.02;;
10269;SDS011;70826;50.930;5.334;2023-07-02T07:05:35;26.88;;;18.35;;
10269;SDS011;70826;50.930;5.334;2023-07-02T07:08:01;28.17;;;18.20;;
10269;SDS011;70826;50.930;5.334;2023-07-02T07:10:27;30.20;;;18.40;;
10269;SDS011;70826;50.930;5.334;2023-07-02T07:13:02;25.90;;;18.48;;
10269;SDS011;70826;50.930;5.334;2023-07-02T07:15:34;23.45;;;17.75;;
10269;SDS011;70826;50.930;5.334;2023-07-02T07:18:00;26.08;;;17.23;;
10269;SDS011;70826;50.930;5.334;2023-07-02T07:20:30;26.38;;;18.30;;
10269;SDS011;70826;50.930;5.334;2023-07-02T07:22:57;23.38;;;17.52;;
10269;SDS011;70826;50.930;5.334;2023-07-02T07:25:25;25.90;;;17.58;;
10269;SDS011;70826;50.930;5.334;2023-07-02T07:27:51;24.65;;;17.10;;
10269;SDS011;70826;50.930;5.334;2023-07-02T07:30:17;25.02;;;18.02;;
10269;SDS011;70826;50.930;5.334;2023-07-02T07:32:48;24.02;;;17.60;;
10269;SDS011;70826;50.930;5.334;2023-07-02T07:35:15;24.70;;;17.92;;
10269;SDS011;70826;50.930;5.334;2023-07-02T07:37:43;26.02;;;18.05;;
10269;SDS011;70826;50.930;5.334;2023-07-02T07:40:09;24.10;;;17.85;;
10269;SDS011;70826;50.930;5.334;2023-07-02T07:42:38;24.75;;;17.20;;
10269;SDS011;70826;50.930;5.334;2023-07-02T07:45:04;24.27;;;18.02;;
10269;SDS011;70826;50.930;5.334;2023-07-02T07:47:33;23.40;;;17.13;;
10269;SDS011;70826;50.930;5.334;2023-07-02T07:49:59;25.02;;;17.55;;
10269;SDS011;70826;50.930;5.334;2023-07-02T07:52:25;24.98;;;18.02;;
10269;SDS011;70826;50.930;5.334;2023-07-02T07:54:50;27.05;;;17.52;;
10269;SDS011;70826;50.930;5.334;2023-07-02T07:57:19;34.08;;;18.38;;
10269;SDS011;70826;50.930;5.334;2023-07-02T07:59:47;37.90;;;20.35;;
10269;SDS011;70826;50.930;5.334;2023-07-02T08:02:13;35.17;;;20.83;;
10269;SDS011;70826;50.930;5.334;2023-07-02T08:04:39;34.45;;;19.92;;
10269;SDS011;70826;50.930;5.334;2023-07-02T08:07:08;37.05;;;19.50;;
10269;SDS011;70826;50.930;5.334;2023-07-02T08:09:37;34.33;;;18.00;;
10269;SDS011;70826;50.930;5.334;2023-07-02T08:12:05;31.83;;;18.13;;
10269;SDS011;70826;50.930;5.334;2023-07-02T08:14:37;35.45;;;18.48;;
10269;SDS011;70826;50.930;5.334;2023-07-02T08:17:05;29.75;;;17.92;;
10269;SDS011;70826;50.930;5.334;2023-07-02T08:19:31;32.67;;;18.33;;
10269;SDS011;70826;50.930;5.334;2023-07-02T08:21:59;28.25;;;16.80;;
10269;SDS011;70826;50.930;5.334;2023-07-02T08:24:25;42.35;;;19.83;;
10269;SDS011;70826;50.930;5.334;2023-07-02T08:26:50;30.95;;;19.33;;
10269;SDS011;70826;50.930;5.334;2023-07-02T08:29:16;31.50;;;18.45;;
10269;SDS011;70826;50.930;5.334;2023-07-02T08:31:45;31.73;;;17.88;;
10269;SDS011;70826;50.930;5.334;2023-07-02T08:34:13;29.67;;;17.35;;
10269;SDS011;70826;50.930;5.334;2023-07-02T08:36:39;26.83;;;17.83;;
10269;SDS011;70826;50.930;5.334;2023-07-02T08:39:07;30.80;;;17.73;;
10269;SDS011;70826;50.930;5.334;2023-07-02T08:41:42;23.83;;;16.55;;
10269;SDS011;70826;50.930;5.334;2023-07-02T08:44:09;26.58;;;16.25;;
10269;SDS011;70826;50.930;5.334;2023-07-02T08:46:40;26.05;;;16.27;;
10269;SDS011;70826;50.930;5.334;2023-07-02T08:49:11;27.33;;;16.15;;
10269;SDS011;70826;50.930;5.334;2023-07-02T08:51:41;22.83;;;15.13;;
10269;SDS011;70826;50.930;5.334;2023-07-02T08:54:14;37.85;;;20.10;;
10269;SDS011;70826;50.930;5.334;2023-07-02T08:56:44;40.50;;;21.73;;
10269;SDS011;70826;50.930;5.334;2023-07-02T08:59:11;46.17;;;24.73;;
10269;SDS011;70826;50.930;5.334;2023-07-02T09:01:48;66.30;;;32.28;;
10269;SDS011;70826;50.930;5.334;2023-07-02T09:04:22;72.70;;;36.28;;
10269;SDS011;70826;50.930;5.334;2023-07-02T09:07:04;80.22;;;40.33;;
10269;SDS011;70826;50.930;5.334;2023-07-02T09:09:43;92.85;;;44.65;;
10269;SDS011;70826;50.930;5.334;2023-07-02T09:12:30;95.47;;;46.08;;
10269;SDS011;70826;50.930;5.334;2023-07-02T09:15:03;89.65;;;45.67;;
10269;SDS011;70826;50.930;5.334;2023-07-02T09:17:34;95.20;;;45.13;;
10269;SDS011;70826;50.930;5.334;2023-07-02T09:20:04;87.05;;;42.63;;
10269;SDS011;70826;50.930;5.334;2023-07-02T09:22:33;79.88;;;39.97;;
10269;SDS011;70826;50.930;5.334;2023-07-02T09:24:59;75.57;;;38.33;;
10269;SDS011;70826;50.930;5.334;2023-07-02T09:27:38;73.13;;;36.97;;
10269;SDS011;70826;50.930;5.334;2023-07-02T09:30:09;67.05;;;35.90;;
10269;SDS011;70826;50.930;5.334;2023-07-02T09:32:41;64.30;;;34.28;;
10269;SDS011;70826;50.930;5.334;2023-07-02T09:35:10;57.65;;;32.00;;
10269;SDS011;70826;50.930;5.334;2023-07-02T09:37:36;59.45;;;31.55;;
10269;SDS011;70826;50.930;5.334;2023-07-02T09:40:06;51.78;;;29.45;;
10269;SDS011;70826;50.930;5.334;2023-07-02T09:42:34;50.03;;;28.95;;
10269;SDS011;70826;50.930;5.334;2023-07-02T09:45:07;53.45;;;27.60;;
10269;SDS011;70826;50.930;5.334;2023-07-02T09:47:38;46.65;;;27.33;;
10269;SDS011;70826;50.930;5.334;2023-07-02T09:50:12;42.90;;;25.25;;
10269;SDS011;70826;50.930;5.334;2023-07-02T09:52:44;46.63;;;24.77;;
10269;SDS011;70826;50.930;5.334;2023-07-02T09:55:11;44.92;;;24.33;;
10269;SDS011;70826;50.930;5.334;2023-07-02T09:57:37;41.15;;;23.85;;
10269;SDS011;70826;50.930;5.334;2023-07-02T10:00:08;38.90;;;22.20;;
10269;SDS011;70826;50.930;5.334;2023-07-02T10:02:37;33.47;;;21.38;;
10269;SDS011;70826;50.930;5.334;2023-07-02T10:05:06;35.47;;;21.25;;
10269;SDS011;70826;50.930;5.334;2023-07-02T10:07:32;34.13;;;20.35;;
10269;SDS011;70826;50.930;5.334;2023-07-02T10:09:58;33.13;;;19.58;;
10269;SDS011;70826;50.930;5.334;2023-07-02T10:12:28;32.97;;;19.38;;
10269;SDS011;70826;50.930;5.334;2023-07-02T10:14:55;30.75;;;18.95;;
10269;SDS011;70826;50.930;5.334;2023-07-02T10:17:23;36.38;;;18.00;;
10269;SDS011;70826;50.930;5.334;2023-07-02T10:19:56;32.22;;;17.38;;
10269;SDS011;70826;50.930;5.334;2023-07-02T10:22:23;34.83;;;17.73;;
10269;SDS011;70826;50.930;5.334;2023-07-02T10:24:55;28.63;;;16.38;;
10269;SDS011;70826;50.930;5.334;2023-07-02T10:27:40;33.40;;;16.30;;
10269;SDS011;70826;50.930;5.334;2023-07-02T10:30:10;36.03;;;16.33;;
10269;SDS011;70826;50.930;5.334;2023-07-02T10:32:36;37.83;;;16.30;;
10269;SDS011;70826;50.930;5.334;2023-07-02T10:35:15;31.58;;;15.25;;
10269;SDS011;70826;50.930;5.334;2023-07-02T10:37:42;33.40;;;14.52;;
10269;SDS011;70826;50.930;5.334;2023-07-02T10:40:08;26.88;;;14.02;;
10269;SDS011;70826;50.930;5.334;2023-07-02T10:42:50;27.35;;;14.18;;
10269;SDS011;70826;50.930;5.334;2023-07-02T10:45:17;27.63;;;13.98;;
10269;SDS011;70826;50.930;5.334;2023-07-02T10:47:45;23.70;;;12.60;;
10269;SDS011;70826;50.930;5.334;2023-07-02T10:50:18;22.13;;;12.40;;
10269;SDS011;70826;50.930;5.334;2023-07-02T10:52:48;24.38;;;13.07;;
10269;SDS011;70826;50.930;5.334;2023-07-02T10:55:20;20.75;;;12.32;;
10269;SDS011;70826;50.930;5.334;2023-07-02T10:57:48;19.00;;;12.65;;
10269;SDS011;70826;50.930;5.334;2023-07-02T11:00:16;21.73;;;12.27;;
10269;SDS011;70826;50.930;5.334;2023-07-02T11:02:45;22.83;;;12.52;;
10269;SDS011;70826;50.930;5.334;2023-07-02T11:05:13;18.42;;;11.65;;
10269;SDS011;70826;50.930;5.334;2023-07-02T11:07:40;17.45;;;11.75;;
10269;SDS011;70826;50.930;5.334;2023-07-02T11:10:16;18.77;;;11.68;;
10269;SDS011;70826;50.930;5.334;2023-07-02T11:12:45;20.20;;;12.43;;
10269;SDS011;70826;50.930;5.334;2023-07-02T11:15:15;17.83;;;11.98;;
10269;SDS011;70826;50.930;5.334;2023-07-02T11:17:45;15.88;;;11.15;;
10269;SDS011;70826;50.930;5.334;2023-07-02T11:20:14;19.33;;;11.57;;
10269;SDS011;70826;50.930;5.334;2023-07-02T11:22:42;18.80;;;11.55;;
10269;SDS011;70826;50.930;5.334;2023-07-02T11:25:20;16.55;;;11.02;;
10269;SDS011;70826;50.930;5.334;2023-07-02T11:27:46;16.23;;;10.98;;
10269;SDS011;70826;50.930;5.334;2023-07-02T11:30:12;17.90;;;11.38;;
10269;SDS011;70826;50.930;5.334;2023-07-02T11:32:52;14.65;;;10.63;;
10269;SDS011;70826;50.930;5.334;2023-07-02T11:35:22;16.50;;;10.90;;
10269;SDS011;70826;50.930;5.334;2023-07-02T11:37:58;15.80;;;10.90;;
10269;SDS011;70826;50.930;5.334;2023-07-02T11:40:26;16.95;;;10.88;;
10269;SDS011;70826;50.930;5.334;2023-07-02T11:42:53;13.77;;;10.45;;
10269;SDS011;70826;50.930;5.334;2023-07-02T11:45:18;14.80;;;10.80;;
10269;SDS011;70826;50.930;5.334;2023-07-02T11:47:47;17.33;;;10.98;;
10269;SDS011;70826;50.930;5.334;2023-07-02T11:50:13;14.98;;;10.55;;
10269;SDS011;70826;50.930;5.334;2023-07-02T11:52:41;17.48;;;10.55;;
10269;SDS011;70826;50.930;5.334;2023-07-02T11:55:07;15.35;;;10.13;;
10269;SDS011;70826;50.930;5.334;2023-07-02T11:57:35;15.32;;;10.93;;
10269;SDS011;70826;50.930;5.334;2023-07-02T12:00:05;14.80;;;10.77;;
10269;SDS011;70826;50.930;5.334;2023-07-02T12:02:35;14.73;;;10.38;;
10269;SDS011;70826;50.930;5.334;2023-07-02T12:05:03;16.05;;;10.80;;
10269;SDS011;70826;50.930;5.334;2023-07-02T12:07:29;16.20;;;10.10;;
10269;SDS011;70826;50.930;5.334;2023-07-02T12:09:58;14.25;;;9.88;;
10269;SDS011;70826;50.930;5.334;2023-07-02T12:12:23;13.38;;;9.82;;
10269;SDS011;70826;50.930;5.334;2023-07-02T12:14:49;15.50;;;9.82;;
10269;SDS011;70826;50.930;5.334;2023-07-02T12:17:20;15.07;;;10.02;;
10269;SDS011;70826;50.930;5.334;2023-07-02T12:19:47;16.50;;;10.30;;
10269;SDS011;70826;50.930;5.334;2023-07-02T12:22:12;14.93;;;9.88;;
10269;SDS011;70826;50.930;5.334;2023-07-02T12:24:43;14.77;;;10.48;;
10269;SDS011;70826;50.930;5.334;2023-07-02T12:27:12;14.65;;;10.13;;
10269;SDS011;70826;50.930;5.334;2023-07-02T12:29:38;13.73;;;9.55;;
10269;SDS011;70826;50.930;5.334;2023-07-02T12:32:09;12.90;;;9.60;;
10269;SDS011;70826;50.930;5.334;2023-07-02T12:34:37;14.25;;;9.80;;
10269;SDS011;70826;50.930;5.334;2023-07-02T12:37:05;13.73;;;9.35;;
10269;SDS011;70826;50.930;5.334;2023-07-02T12:39:31;12.40;;;9.73;;
10269;SDS011;70826;50.930;5.334;2023-07-02T12:41:57;12.80;;;9.68;;
10269;SDS011;70826;50.930;5.334;2023-07-02T12:44:25;12.38;;;9.55;;
10269;SDS011;70826;50.930;5.334;2023-07-02T12:46:52;11.88;;;9.75;;
10269;SDS011;70826;50.930;5.334;2023-07-02T12:49:18;13.95;;;9.52;;
10269;SDS011;70826;50.930;5.334;2023-07-02T12:51:43;14.18;;;9.88;;
10269;SDS011;70826;50.930;5.334;2023-07-02T12:54:12;14.48;;;9.95;;
10269;SDS011;70826;50.930;5.334;2023-07-02T12:56:38;13.68;;;9.70;;
10269;SDS011;70826;50.930;5.334;2023-07-02T12:59:03;13.68;;;9.73;;
10269;SDS011;70826;50.930;5.334;2023-07-02T13:01:29;12.75;;;9.27;;
10269;SDS011;70826;50.930;5.334;2023-07-02T13:03:58;13.57;;;9.82;;
10269;SDS011;70826;50.930;5.334;2023-07-02T13:06:24;12.95;;;9.45;;
10269;SDS011;70826;50.930;5.334;2023-07-02T13:08:50;13.93;;;9.95;;
10269;SDS011;70826;50.930;5.334;2023-07-02T13:11:20;12.95;;;9.07;;
10269;SDS011;70826;50.930;5.334;2023-07-02T13:13:51;13.98;;;9.48;;
10269;SDS011;70826;50.930;5.334;2023-07-02T13:16:19;12.93;;;9.63;;
10269;SDS011;70826;50.930;5.334;2023-07-02T13:18:52;10.65;;;8.60;;
10269;SDS011;70826;50.930;5.334;2023-07-02T13:21:24;12.07;;;9.63;;
10269;SDS011;70826;50.930;5.334;2023-07-02T13:23:52;11.60;;;8.85;;
10269;SDS011;70826;50.930;5.334;2023-07-02T13:26:23;13.02;;;9.63;;
10269;SDS011;70826;50.930;5.334;2023-07-02T13:28:49;13.43;;;8.90;;
10269;SDS011;70826;50.930;5.334;2023-07-02T13:31:15;12.68;;;9.13;;
10269;SDS011;70826;50.930;5.334;2023-07-02T13:33:41;12.73;;;8.80;;
10269;SDS011;70826;50.930;5.334;2023-07-02T13:36:11;12.98;;;9.75;;
10269;SDS011;70826;50.930;5.334;2023-07-02T13:38:37;11.15;;;9.18;;
10269;SDS011;70826;50.930;5.334;2023-07-02T13:41:03;14.73;;;9.55;;
10269;SDS011;70826;50.930;5.334;2023-07-02T13:43:29;12.73;;;9.68;;
10269;SDS011;70826;50.930;5.334;2023-07-02T13:45:57;12.60;;;9.77;;
10269;SDS011;70826;50.930;5.334;2023-07-02T13:48:23;11.65;;;8.75;;
10269;SDS011;70826;50.930;5.334;2023-07-02T13:50:49;12.68;;;8.50;;
10269;SDS011;70826;50.930;5.334;2023-07-02T13:53:20;12.75;;;9.35;;
10269;SDS011;70826;50.930;5.334;2023-07-02T13:55:46;12.55;;;8.98;;
10269;SDS011;70826;50.930;5.334;2023-07-02T13:58:12;13.38;;;8.95;;
10269;SDS011;70826;50.930;5.334;2023-07-02T14:00:38;14.02;;;9.45;;
10269;SDS011;70826;50.930;5.334;2023-07-02T14:03:06;10.98;;;8.45;;
10269;SDS011;70826;50.930;5.334;2023-07-02T14:05:34;11.43;;;8.50;;
10269;SDS011;70826;50.930;5.334;2023-07-02T14:07:59;12.02;;;9.13;;
10269;SDS011;70826;50.930;5.334;2023-07-02T14:10:25;12.00;;;9.10;;
10269;SDS011;70826;50.930;5.334;2023-07-02T14:12:55;12.82;;;9.13;;
10269;SDS011;70826;50.930;5.334;2023-07-02T14:15:24;12.30;;;8.73;;
10269;SDS011;70826;50.930;5.334;2023-07-02T14:17:52;12.75;;;8.70;;
10269;SDS011;70826;50.930;5.334;2023-07-02T14:20:21;11.93;;;8.27;;
10269;SDS011;70826;50.930;5.334;2023-07-02T14:22:47;11.20;;;9.00;;
10269;SDS011;70826;50.930;5.334;2023-07-02T14:25:13;12.43;;;8.80;;
10269;SDS011;70826;50.930;5.334;2023-07-02T14:27:38;10.98;;;8.15;;
10269;SDS011;70826;50.930;5.334;2023-07-02T14:30:05;11.55;;;8.77;;
10269;SDS011;70826;50.930;5.334;2023-07-02T14:32:35;11.57;;;8.98;;
10269;SDS011;70826;50.930;5.334;2023-07-02T14:35:03;12.48;;;8.73;;